createdAt,value
2024-04-06T00:01:29.362Z,99.99
2024-04-06T00:03:41.431Z,99.99
2024-04-06T00:05:53.541Z,99.99
2024-04-06T00:08:12.942Z,99.99
2024-04-06T00:10:17.679Z,99.99
2024-04-06T00:12:29.745Z,99.99
2024-04-06T00:14:41.855Z,99.99
2024-04-06T00:16:53.945Z,99.99
2024-04-06T00:19:05.980Z,99.99
2024-04-06T00:21:18.046Z,99.99
2024-04-06T00:23:30.164Z,99.99
2024-04-06T00:25:42.238Z,99.99
2024-04-06T00:27:54.354Z,99.99
2024-04-06T00:30:06.441Z,99.99
2024-04-06T00:32:18.476Z,99.99
2024-04-06T00:34:30.565Z,99.99
2024-04-06T00:36:43.631Z,99.99
2024-04-06T00:38:55.744Z,99.99
2024-04-06T00:41:07.790Z,99.99
2024-04-06T00:43:19.873Z,99.99
2024-04-06T00:45:31.942Z,99.99
2024-04-06T00:47:45.011Z,99.99
2024-04-06T00:49:57.141Z,99.99
2024-04-06T00:52:09.191Z,99.99
2024-04-06T00:54:21.259Z,99.99
2024-04-06T00:56:33.353Z,99.99
2024-04-06T00:58:45.416Z,99.99
2024-04-06T01:00:57.557Z,99.99
2024-04-06T01:03:09.605Z,99.99
2024-04-06T01:05:21.729Z,99.99
2024-04-06T01:07:33.769Z,99.99
2024-04-06T01:09:45.855Z,99.99
2024-04-06T01:11:57.949Z,99.99
2024-04-06T01:14:10.031Z,99.99
2024-04-06T01:16:22.101Z,99.99
2024-04-06T01:18:34.180Z,99.99
2024-04-06T01:20:46.262Z,99.99
2024-04-06T01:22:58.360Z,99.99
2024-04-06T01:25:10.425Z,99.99
2024-04-06T01:27:22.494Z,99.99
2024-04-06T01:29:34.595Z,99.99
2024-04-06T01:31:46.672Z,99.99
2024-04-06T01:33:58.769Z,99.99
2024-04-06T01:36:10.842Z,99.99
2024-04-06T01:38:22.905Z,99.99
2024-04-06T01:40:34.979Z,99.99
2024-04-06T01:42:47.057Z,99.99
2024-04-06T01:44:59.165Z,99.99
2024-04-06T01:47:11.212Z,99.99
2024-04-06T01:49:23.282Z,99.99
2024-04-06T01:51:35.380Z,99.99
2024-04-06T01:53:47.455Z,99.99
2024-04-06T01:55:59.565Z,99.99
2024-04-06T01:58:11.626Z,99.99
2024-04-06T02:00:23.707Z,99.99
2024-04-06T02:02:35.800Z,99.99
2024-04-06T02:04:47.868Z,99.99
2024-04-06T02:06:59.954Z,99.99
2024-04-06T02:09:12.034Z,99.99
2024-04-06T02:11:24.151Z,99.99
2024-04-06T02:13:36.183Z,99.99
2024-04-06T02:15:48.248Z,99.99
2024-04-06T02:18:00.366Z,99.99
2024-04-06T02:20:12.422Z,99.99
2024-04-06T02:22:24.537Z,99.99
2024-04-06T02:24:36.599Z,99.99
2024-04-06T02:26:48.684Z,99.99
2024-04-06T02:29:00.801Z,99.99
2024-04-06T02:31:12.883Z,99.99
2024-04-06T02:33:24.949Z,99.99
2024-04-06T02:35:37.020Z,99.99
2024-04-06T02:37:49.106Z,99.99
2024-04-06T02:40:01.217Z,99.99
2024-04-06T02:42:14.264Z,99.99
2024-04-06T02:44:26.417Z,99.99
2024-04-06T02:46:38.434Z,99.99
2024-04-06T02:48:50.497Z,99.99
2024-04-06T02:51:02.610Z,99.99
2024-04-06T02:53:14.665Z,99.99
2024-04-06T02:55:26.745Z,99.99
2024-04-06T02:57:38.836Z,99.99
2024-04-06T02:59:50.917Z,99.99
2024-04-06T03:02:03.009Z,99.99
2024-04-06T03:04:15.065Z,99.99
2024-04-06T03:06:27.146Z,99.99
2024-04-06T03:08:39.358Z,99.99
2024-04-06T03:10:51.334Z,99.99
2024-04-06T03:13:03.420Z,99.99
2024-04-06T03:15:15.487Z,99.99
2024-04-06T03:17:27.618Z,99.99
2024-04-06T03:19:39.634Z,99.99
2024-04-06T03:21:51.702Z,99.99
2024-04-06T03:24:03.827Z,99.99
2024-04-06T03:26:15.870Z,99.99
2024-04-06T03:28:27.956Z,99.99
2024-04-06T03:30:40.024Z,99.99
2024-04-06T03:32:52.115Z,99.99
2024-04-06T03:35:04.232Z,99.99
2024-04-06T03:37:16.295Z,99.99
2024-04-06T03:39:28.389Z,99.99
2024-04-06T03:41:40.486Z,99.99
2024-04-06T03:43:52.513Z,99.99
2024-04-06T03:46:04.619Z,99.99
2024-04-06T03:48:16.664Z,99.99
2024-04-06T03:50:28.742Z,99.99
2024-04-06T03:52:40.826Z,99.99
2024-04-06T03:54:52.900Z,99.99
2024-04-06T03:57:04.999Z,99.99
2024-04-06T03:59:17.083Z,99.99
2024-04-06T04:01:29.164Z,99.99
2024-04-06T04:03:41.230Z,99.99
2024-04-06T04:05:53.329Z,99.99
2024-04-06T04:08:05.457Z,99.99
2024-04-06T04:10:17.509Z,99.99
2024-04-06T04:12:29.591Z,99.99
2024-04-06T04:14:41.684Z,99.99
2024-04-06T04:16:53.785Z,99.99
2024-04-06T04:19:05.894Z,99.99
2024-04-06T04:21:17.937Z,99.99
2024-04-06T04:23:30.013Z,99.99
2024-04-06T04:25:42.085Z,99.99
2024-04-06T04:27:54.165Z,99.99
2024-04-06T04:30:06.276Z,99.99
2024-04-06T04:32:18.353Z,99.99
2024-04-06T04:34:30.452Z,99.99
2024-04-06T04:36:42.541Z,99.99
2024-04-06T04:38:54.613Z,99.99
2024-04-06T04:41:06.708Z,99.99
2024-04-06T04:43:18.761Z,99.99
2024-04-06T04:45:30.839Z,99.99
2024-04-06T04:47:42.938Z,99.99
2024-04-06T04:49:54.994Z,99.99
2024-04-06T04:52:07.101Z,99.99
2024-04-06T04:54:19.160Z,99.99
2024-04-06T04:56:31.270Z,99.99
2024-04-06T04:58:43.349Z,99.99
2024-04-06T05:00:55.458Z,99.99
2024-04-06T05:03:07.556Z,99.99
2024-04-06T05:05:19.609Z,99.99
2024-04-06T05:07:31.690Z,99.99
2024-04-06T05:09:43.825Z,99.99
2024-04-06T05:11:55.857Z,99.99
2024-04-06T05:14:08.942Z,99.99
2024-04-06T05:16:21.013Z,99.99
2024-04-06T05:18:33.086Z,99.99
2024-04-06T05:20:45.154Z,99.99
2024-04-06T05:22:57.244Z,99.99
2024-04-06T05:25:09.372Z,99.99
2024-04-06T05:27:21.456Z,99.99
2024-04-06T05:29:33.552Z,99.99
2024-04-06T05:31:45.641Z,99.99
2024-04-06T05:33:58.720Z,99.99
2024-04-06T05:36:10.835Z,99.99
2024-04-06T05:38:23.889Z,99.99
2024-04-06T05:40:35.995Z,99.99
2024-04-06T05:42:48.077Z,99.99
2024-04-06T05:45:00.190Z,99.99
2024-04-06T05:47:12.249Z,99.99
2024-04-06T05:49:24.321Z,99.99
2024-04-06T05:51:36.396Z,99.99
2024-04-06T05:53:49.464Z,99.99
2024-04-06T05:56:01.562Z,99.99
2024-04-06T05:58:15.165Z,99.99
2024-04-06T06:00:27.225Z,99.99
2024-04-06T06:02:39.328Z,99.99
2024-04-06T06:04:51.391Z,99.99
2024-04-06T06:07:03.469Z,99.99
2024-04-06T06:09:15.580Z,99.99
2024-04-06T06:11:27.653Z,99.99
2024-04-06T06:13:39.784Z,99.99
2024-04-06T06:15:51.900Z,99.99
2024-04-06T06:18:04.024Z,99.99
2024-04-06T06:20:16.111Z,99.99
2024-04-06T06:22:28.136Z,99.99
2024-04-06T06:24:40.190Z,99.99
2024-04-06T06:26:52.281Z,99.99
2024-04-06T06:29:04.363Z,99.99
2024-04-06T06:31:16.479Z,99.99
2024-04-06T06:33:28.534Z,99.99
2024-04-06T06:37:57.016Z,99.99
2024-04-06T06:42:17.879Z,99.99
2024-04-06T06:44:31.439Z,99.99
2024-04-06T06:46:43.525Z,99.43
2024-04-06T06:48:55.611Z,99.38
2024-04-06T06:51:07.725Z,98.97
2024-04-06T06:53:20.814Z,98.63
2024-04-06T06:55:32.882Z,97.81
2024-04-06T06:57:44.982Z,96.75
2024-04-06T07:02:10.663Z,96.15
2024-04-06T07:04:23.764Z,95.71
2024-04-06T07:09:02.469Z,93.88
2024-04-06T07:09:48.923Z,94.19
2024-04-06T07:11:59.985Z,94.55
2024-04-06T07:14:12.063Z,93.19
2024-04-06T07:16:24.155Z,92.54
2024-04-06T07:18:36.285Z,90.98
2024-04-06T07:20:48.345Z,89.42
2024-04-06T07:23:00.404Z,88.26
2024-04-06T07:25:12.540Z,88.51
2024-04-06T07:27:24.550Z,88.77
2024-04-06T07:29:36.646Z,87.62
2024-04-06T07:31:49.718Z,88.67
2024-04-06T07:34:01.772Z,89.83
2024-04-06T07:36:13.854Z,87.92
2024-04-06T07:38:25.944Z,86.16
2024-04-06T07:40:38.026Z,85.76
2024-04-06T07:42:50.121Z,86.02
2024-04-06T07:45:02.193Z,85.08
2024-04-06T07:47:14.290Z,85.31
2024-04-06T07:49:26.345Z,87.18
2024-04-06T07:51:38.459Z,86.57
2024-04-06T07:53:50.533Z,86.53
2024-04-06T07:56:02.585Z,85.11
2024-04-06T07:58:14.684Z,85.28
2024-04-06T08:00:27.048Z,85.34
2024-04-06T08:02:39.157Z,84.09
2024-04-06T08:04:51.258Z,84.05
2024-04-06T08:07:06.479Z,82.70
2024-04-06T08:09:16.380Z,81.32
2024-04-06T08:11:28.472Z,79.06
2024-04-06T08:13:40.535Z,79.87
2024-04-06T08:15:52.634Z,81.04
2024-04-06T08:18:04.691Z,80.65
2024-04-06T08:20:16.789Z,81.59
2024-04-06T08:22:28.854Z,81.52
2024-04-06T08:24:40.956Z,80.11
2024-04-06T08:26:53.059Z,81.18
2024-04-06T08:29:06.090Z,80.31
2024-04-06T08:31:18.230Z,81.68
2024-04-06T08:33:30.261Z,80.33
2024-04-06T08:35:42.349Z,78.33
2024-04-06T08:37:54.454Z,78.39
2024-04-06T08:40:06.525Z,78.49
2024-04-06T08:42:18.579Z,79.36
2024-04-06T08:44:30.633Z,77.72
2024-04-06T08:46:42.715Z,76.51
2024-04-06T08:48:55.807Z,77.31
2024-04-06T08:51:07.859Z,76.65
2024-04-06T08:53:20.960Z,77.11
2024-04-06T08:55:33.013Z,76.28
2024-04-06T08:57:45.090Z,77.67
2024-04-06T08:59:57.202Z,73.83
2024-04-06T09:02:09.258Z,74.46
2024-04-06T09:04:21.336Z,72.92
2024-04-06T09:06:33.405Z,72.39
2024-04-06T09:08:45.470Z,71.33
2024-04-06T09:10:57.596Z,71.92
2024-04-06T09:13:09.698Z,72.09
2024-04-06T09:15:21.752Z,69.96
2024-04-06T09:17:33.833Z,71.23
2024-04-06T09:19:45.908Z,71.79
2024-04-06T09:21:58.015Z,70.86
2024-04-06T09:24:10.083Z,73.42
2024-04-06T09:26:25.893Z,69.76
2024-04-06T09:28:34.230Z,72.49
2024-04-06T09:30:46.290Z,68.96
2024-04-06T09:32:58.376Z,71.62
2024-04-06T09:35:10.444Z,68.19
2024-04-06T09:37:22.542Z,70.12
2024-04-06T09:39:34.627Z,68.29
2024-04-06T09:41:46.703Z,69.56
2024-04-06T09:43:58.798Z,69.26
2024-04-06T09:46:10.891Z,70.39
2024-04-06T09:48:22.959Z,67.23
2024-04-06T09:50:35.018Z,69.53
2024-04-06T09:52:47.130Z,70.19
2024-04-06T09:54:59.216Z,70.66
2024-04-06T09:57:11.254Z,72.26
2024-04-06T09:59:23.330Z,73.93
2024-04-06T10:01:35.423Z,74.90
2024-04-06T10:03:47.492Z,74.80
2024-04-06T10:05:59.587Z,74.47
2024-04-06T10:08:11.661Z,73.70
2024-04-06T10:10:23.721Z,71.23
2024-04-06T10:12:36.804Z,72.89
2024-04-06T10:14:48.899Z,73.90
2024-04-06T10:17:00.981Z,72.80
2024-04-06T10:19:13.052Z,74.05
2024-04-06T10:21:26.102Z,69.13
2024-04-06T10:23:38.189Z,68.96
2024-04-06T10:25:50.263Z,67.63
2024-04-06T10:28:02.360Z,66.74
2024-04-06T10:30:15.402Z,65.21
2024-04-06T10:32:27.515Z,66.31
2024-04-06T10:34:46.123Z,64.51
2024-04-06T10:36:52.618Z,68.16
2024-04-06T10:39:04.730Z,65.38
2024-04-06T10:41:16.776Z,66.47
2024-04-06T10:43:28.853Z,65.31
2024-04-06T10:45:41.921Z,64.64
2024-04-06T10:47:56.008Z,64.34
2024-04-06T10:50:08.393Z,67.00
2024-04-06T10:52:20.437Z,66.67
2024-04-06T10:54:33.119Z,65.77
2024-04-06T10:56:44.584Z,63.72
2024-04-06T10:58:56.680Z,62.42
2024-04-06T11:01:08.786Z,64.78
2024-04-06T11:03:20.840Z,65.26
2024-04-06T11:05:32.905Z,67.60
2024-04-06T11:07:45.964Z,67.63
2024-04-06T11:09:58.076Z,64.41
2024-04-06T11:12:11.161Z,63.88
2024-04-06T11:14:23.223Z,63.85
2024-04-06T11:16:35.294Z,62.52
2024-04-06T11:18:47.384Z,62.13
2024-04-06T11:20:59.470Z,60.44
2024-04-06T11:23:11.573Z,60.69
2024-04-06T11:25:23.661Z,59.01
2024-04-06T11:27:35.676Z,58.39
2024-04-06T11:29:49.194Z,59.48
2024-04-06T11:31:59.828Z,57.85
2024-04-06T11:34:11.940Z,63.34
2024-04-06T11:36:23.978Z,59.23
2024-04-06T11:38:36.065Z,59.00
2024-04-06T11:40:48.172Z,60.88
2024-04-06T11:43:00.562Z,59.82
2024-04-06T11:45:12.646Z,60.14
2024-04-06T11:47:24.704Z,61.13
2024-04-06T11:49:36.795Z,62.15
2024-04-06T11:51:48.860Z,63.38
2024-04-06T11:54:00.932Z,65.34
2024-04-06T11:56:14.027Z,63.65
2024-04-06T11:58:26.072Z,62.15
2024-04-06T12:00:38.147Z,65.27
2024-04-06T12:02:50.223Z,64.37
2024-04-06T12:05:02.301Z,65.54
2024-04-06T12:07:14.440Z,62.78
2024-04-06T12:09:26.441Z,64.90
2024-04-06T12:11:39.835Z,65.04
2024-04-06T12:13:51.921Z,66.43
2024-04-06T12:16:04.006Z,65.14
2024-04-06T12:18:16.114Z,65.91
2024-04-06T12:20:28.167Z,64.78
2024-04-06T12:22:40.244Z,64.67
2024-04-06T12:24:52.362Z,65.84
2024-04-06T12:27:04.445Z,65.14
2024-04-06T12:29:16.561Z,64.34
2024-04-06T12:31:28.583Z,64.07
2024-04-06T12:33:40.676Z,61.99
2024-04-06T12:35:52.754Z,64.07
2024-04-06T12:38:04.853Z,63.08
2024-04-06T12:40:16.971Z,64.87
2024-04-06T12:42:28.988Z,65.64
2024-04-06T12:44:41.090Z,65.74
2024-04-06T12:46:53.170Z,62.45
2024-04-06T12:49:06.276Z,63.25
2024-04-06T12:51:18.361Z,65.11
2024-04-06T12:53:30.417Z,63.22
2024-04-06T12:55:43.478Z,63.25
2024-04-06T12:57:55.558Z,65.84
2024-04-06T13:00:08.623Z,64.54
2024-04-06T13:02:23.250Z,63.65
2024-04-06T13:04:32.791Z,65.84
2024-04-06T13:06:45.884Z,63.05
2024-04-06T13:08:57.960Z,62.55
2024-04-06T13:11:10.026Z,63.55
2024-04-06T13:13:23.137Z,62.23
2024-04-06T13:15:35.188Z,62.35
2024-04-06T13:17:48.250Z,61.83
2024-04-06T13:20:00.318Z,61.43
2024-04-06T13:22:13.402Z,59.86
2024-04-06T13:24:25.490Z,60.79
2024-04-06T13:26:37.551Z,61.82
2024-04-06T13:28:49.628Z,61.41
2024-04-06T13:31:01.715Z,62.12
2024-04-06T13:33:14.791Z,62.78
2024-04-06T13:35:26.884Z,61.85
2024-04-06T13:37:39.933Z,62.05
2024-04-06T13:39:52.021Z,59.96
2024-04-06T13:42:04.088Z,60.66
2024-04-06T13:44:16.166Z,60.46
2024-04-06T13:46:28.267Z,60.73
2024-04-06T13:48:40.348Z,60.86
2024-04-06T13:50:52.416Z,61.46
2024-04-06T13:53:04.495Z,62.52
2024-04-06T13:55:16.622Z,62.15
2024-04-06T13:57:28.666Z,60.26
2024-04-06T13:59:40.730Z,61.66
2024-04-06T14:01:52.800Z,63.65
2024-04-06T14:04:04.885Z,61.96
2024-04-06T14:06:16.946Z,60.16
2024-04-06T14:08:29.063Z,59.96
2024-04-06T14:10:41.126Z,61.55
2024-04-06T14:12:53.206Z,63.15
2024-04-06T14:15:06.260Z,65.05
2024-04-06T14:17:18.359Z,63.55
2024-04-06T14:19:31.432Z,62.15
2024-04-06T14:21:43.510Z,63.15
2024-04-06T14:23:55.575Z,62.75
2024-04-06T14:26:07.646Z,62.65
2024-04-06T14:28:19.750Z,61.36
2024-04-06T14:30:31.862Z,59.86
2024-04-06T14:32:43.896Z,59.47
2024-04-06T14:34:55.985Z,59.77
2024-04-06T14:37:08.059Z,60.53
2024-04-06T14:39:20.141Z,62.62
2024-04-06T14:41:32.240Z,58.87
2024-04-06T14:43:44.383Z,59.27
2024-04-06T14:45:56.399Z,59.66
2024-04-06T14:48:08.479Z,58.94
2024-04-06T14:50:20.557Z,60.53
2024-04-06T14:52:33.671Z,60.33
2024-04-06T14:54:45.715Z,60.13
2024-04-06T14:56:57.826Z,60.93
2024-04-06T14:59:10.015Z,60.63
2024-04-06T15:01:22.003Z,60.43
2024-04-06T15:03:34.102Z,61.33
2024-04-06T15:05:46.157Z,61.83
2024-04-06T15:07:58.246Z,60.13
2024-04-06T15:10:10.313Z,61.83
2024-04-06T15:12:22.395Z,61.03
2024-04-06T15:14:34.511Z,60.24
2024-04-06T15:16:46.572Z,61.93
2024-04-06T15:18:58.657Z,62.23
2024-04-06T15:21:10.732Z,60.73
2024-04-06T15:23:22.814Z,61.53
2024-04-06T15:25:34.924Z,63.02
2024-04-06T15:27:47.002Z,61.53
2024-04-06T15:30:00.053Z,60.93
2024-04-06T15:32:12.126Z,59.64
2024-04-06T15:34:25.186Z,61.00
2024-04-06T15:36:38.292Z,61.23
2024-04-06T15:38:50.334Z,60.80
2024-04-06T15:41:02.407Z,61.99
2024-04-06T15:43:16.910Z,62.13
2024-04-06T15:45:26.568Z,63.12
2024-04-06T15:47:38.677Z,61.85
2024-04-06T15:49:50.735Z,62.65
2024-04-06T15:52:02.828Z,61.16
2024-04-06T15:54:14.881Z,63.15
2024-04-06T15:56:26.951Z,62.26
2024-04-06T15:58:39.094Z,63.75
2024-04-06T16:00:51.108Z,64.64
2024-04-06T16:03:03.213Z,64.37
2024-04-06T16:05:15.287Z,63.31
2024-04-06T16:07:27.395Z,65.04
2024-04-06T16:09:39.502Z,65.37
2024-04-06T16:11:51.554Z,67.76
2024-04-06T16:14:03.638Z,68.59
2024-04-06T16:16:15.700Z,69.32
2024-04-06T16:18:28.763Z,70.76
2024-04-06T16:20:40.885Z,70.66
2024-04-06T16:22:53.928Z,70.86
2024-04-06T16:25:06.008Z,70.49
2024-04-06T16:27:19.086Z,70.76
2024-04-06T16:29:31.162Z,69.73
2024-04-06T16:31:43.253Z,68.70
2024-04-06T16:33:55.328Z,68.19
2024-04-06T16:36:07.415Z,68.96
2024-04-06T16:38:20.458Z,67.26
2024-04-06T16:40:32.567Z,68.06
2024-04-06T16:42:44.643Z,68.26
2024-04-06T16:44:56.713Z,69.79
2024-04-06T16:47:12.321Z,69.53
2024-04-06T16:49:24.423Z,70.96
2024-04-06T16:51:36.455Z,70.59
2024-04-06T16:53:48.558Z,71.89
2024-04-06T16:56:00.604Z,73.13
2024-04-06T16:58:12.692Z,74.16
2024-04-06T17:00:24.767Z,73.80
2024-04-06T17:02:37.842Z,75.74
2024-04-06T17:04:49.929Z,75.27
2024-04-06T17:07:01.990Z,76.07
2024-04-06T17:09:14.072Z,76.21
2024-04-06T17:11:27.226Z,76.61
2024-04-06T17:13:39.220Z,77.25
2024-04-06T17:15:52.831Z,78.29
2024-04-06T17:18:04.883Z,78.79
2024-04-06T17:20:17.979Z,79.83
2024-04-06T17:22:36.050Z,79.93
2024-04-06T17:24:49.659Z,79.87
2024-04-06T17:27:01.761Z,80.68
2024-04-06T17:29:13.807Z,80.61
2024-04-06T17:31:25.925Z,80.91
2024-04-06T17:33:37.999Z,82.86
2024-04-06T17:35:50.069Z,82.46
2024-04-06T17:38:02.179Z,83.00
2024-04-06T17:40:15.207Z,82.90
2024-04-06T17:42:28.811Z,83.81
2024-04-06T17:44:44.407Z,83.95
2024-04-06T17:46:56.505Z,84.45
2024-04-06T17:49:10.090Z,84.80
2024-04-06T17:51:23.135Z,85.10
2024-04-06T17:53:35.233Z,85.20
2024-04-06T17:55:47.317Z,85.70
2024-04-06T17:57:59.725Z,85.30
2024-04-06T18:00:13.335Z,85.44
2024-04-06T18:02:25.375Z,86.24
2024-04-06T18:04:37.463Z,86.24
2024-04-06T18:06:51.073Z,87.05
2024-04-06T18:09:03.149Z,86.89
2024-04-06T18:11:16.258Z,87.09
2024-04-06T18:13:28.313Z,86.89
2024-04-06T18:15:41.369Z,87.84
2024-04-06T18:17:53.461Z,87.84
2024-04-06T18:20:05.560Z,88.04
2024-04-06T18:22:19.192Z,88.28
2024-04-06T18:24:31.252Z,89.29
2024-04-06T18:26:43.313Z,89.39
2024-04-06T18:28:56.941Z,89.50
2024-04-06T18:31:10.020Z,89.23
2024-04-06T18:33:23.633Z,89.64
2024-04-06T18:35:37.194Z,89.84
2024-04-06T18:37:50.799Z,90.28
2024-04-06T18:40:08.896Z,90.69
2024-04-06T18:42:22.583Z,90.73
2024-04-06T18:44:34.579Z,91.34
2024-04-06T18:46:46.637Z,91.74
2024-04-06T18:48:58.725Z,92.19
2024-04-06T18:51:10.785Z,92.60
2024-04-06T18:53:22.883Z,93.15
2024-04-06T18:55:35.021Z,93.44
2024-04-06T18:59:04.525Z,93.55
2024-04-06T19:01:28.097Z,93.79
2024-04-06T19:03:28.622Z,94.20
2024-04-06T19:05:41.682Z,94.40
2024-04-06T19:07:53.820Z,94.60
2024-04-06T19:10:05.877Z,94.60
2024-04-06T19:12:18.014Z,94.65
2024-04-06T19:14:31.042Z,94.95
2024-04-06T19:16:43.117Z,94.95
2024-04-06T19:18:55.234Z,95.40
2024-04-06T19:21:07.301Z,95.91
2024-04-06T19:23:19.403Z,96.01
2024-04-06T19:25:35.026Z,96.42
2024-04-06T19:27:47.070Z,96.82
2024-04-06T19:30:00.821Z,97.07
2024-04-06T19:32:12.740Z,96.87
2024-04-06T19:34:24.883Z,96.97
2024-04-06T19:36:36.931Z,97.07
2024-04-06T19:38:49.007Z,97.67
2024-04-06T19:41:01.085Z,97.72
2024-04-06T19:43:13.176Z,98.13
2024-04-06T19:45:26.272Z,98.33
2024-04-06T19:47:38.347Z,97.78
2024-04-06T19:49:51.427Z,96.92
2024-04-06T19:52:03.498Z,96.92
2024-04-06T19:54:15.574Z,96.82
2024-04-06T19:56:27.683Z,96.87
2024-04-06T19:58:40.722Z,97.07
2024-04-06T20:00:52.807Z,97.27
2024-04-06T20:03:05.875Z,97.17
2024-04-06T20:05:17.967Z,97.38
2024-04-06T20:07:31.095Z,97.62
2024-04-06T20:09:44.392Z,97.92
2024-04-06T20:11:56.508Z,98.23
2024-04-06T20:14:08.711Z,98.23
2024-04-06T20:16:20.675Z,98.68
2024-04-06T20:18:33.762Z,98.79
2024-04-06T20:20:45.818Z,98.79
2024-04-06T20:22:57.920Z,99.08
2024-04-06T20:25:10.974Z,99.33
2024-04-06T20:27:23.065Z,99.44
2024-04-06T20:29:35.154Z,99.64
2024-04-06T20:31:48.212Z,99.74
2024-04-06T20:34:00.285Z,99.85
2024-04-06T20:36:12.373Z,99.99
2024-04-06T20:38:24.459Z,99.99
2024-04-06T20:40:36.590Z,99.99
2024-04-06T20:42:48.612Z,99.99
2024-04-06T20:45:00.752Z,99.99
2024-04-06T20:47:12.770Z,99.99
2024-04-06T20:49:24.855Z,99.99
2024-04-06T20:51:36.955Z,99.99
2024-04-06T20:53:49.015Z,99.99
2024-04-06T20:56:01.125Z,99.99
2024-04-06T20:58:13.186Z,99.99
2024-04-06T21:00:25.263Z,99.99
2024-04-06T21:02:37.376Z,99.99
2024-04-06T21:04:49.434Z,99.99
2024-04-06T21:07:01.829Z,99.99
2024-04-06T21:09:13.917Z,99.99
2024-04-06T21:11:25.997Z,99.99
2024-04-06T21:13:38.155Z,99.99
2024-04-06T21:15:51.148Z,99.99
2024-04-06T21:18:03.228Z,99.99
2024-04-06T21:20:16.294Z,99.99
2024-04-06T21:22:28.366Z,99.99
2024-04-06T21:24:40.480Z,99.99
2024-04-06T21:26:52.563Z,99.99
2024-04-06T21:29:04.723Z,99.99
2024-04-06T21:31:16.717Z,99.99
2024-04-06T21:33:28.789Z,99.99
2024-04-06T21:35:40.891Z,99.99
2024-04-06T21:37:53.290Z,99.99
2024-04-06T21:40:05.336Z,99.99
2024-04-06T21:42:17.408Z,99.99
2024-04-06T21:44:29.511Z,99.99
2024-04-06T21:46:41.624Z,99.99
2024-04-06T21:48:53.680Z,99.99
2024-04-06T21:51:05.748Z,99.99
2024-04-06T21:53:17.821Z,99.99
2024-04-06T21:55:29.921Z,99.99
2024-04-06T21:57:42.020Z,99.99
2024-04-06T21:59:54.072Z,99.99
2024-04-06T22:02:08.935Z,99.99
2024-04-06T22:04:18.235Z,99.99
2024-04-06T22:06:30.313Z,99.99
2024-04-06T22:08:42.419Z,99.99
2024-04-06T22:10:55.474Z,99.99
2024-04-06T22:13:07.548Z,99.99
2024-04-06T22:15:19.622Z,99.99
2024-04-06T22:17:31.702Z,99.99
2024-04-06T22:19:43.838Z,99.99
2024-04-06T22:21:55.890Z,99.99
2024-04-06T22:24:07.976Z,99.99
2024-04-06T22:26:20.049Z,99.99
2024-04-06T22:28:32.160Z,99.99
2024-04-06T22:30:44.220Z,99.99
2024-04-06T22:32:56.303Z,99.99
2024-04-06T22:35:08.371Z,99.99
2024-04-06T22:37:20.447Z,99.99
2024-04-06T22:39:32.536Z,99.99
2024-04-06T22:41:44.654Z,99.99
2024-04-06T22:43:56.722Z,99.99
2024-04-06T22:46:08.900Z,99.99
2024-04-06T22:48:20.925Z,99.99
2024-04-06T22:50:33.001Z,99.99
2024-04-06T22:52:45.149Z,99.99
2024-04-06T22:54:57.164Z,99.99
2024-04-06T22:57:09.226Z,99.99
2024-04-06T22:59:21.318Z,99.99
2024-04-06T23:01:33.387Z,99.99
2024-04-06T23:03:45.501Z,99.99
2024-04-06T23:05:57.544Z,99.99
2024-04-06T23:08:09.647Z,99.99
2024-04-06T23:10:21.909Z,99.99
2024-04-06T23:12:33.803Z,99.99
2024-04-06T23:14:46.895Z,99.99
2024-04-06T23:16:58.941Z,99.99
2024-04-06T23:19:12.007Z,99.99
2024-04-06T23:21:24.100Z,99.99
2024-04-06T23:23:36.198Z,99.99
2024-04-06T23:25:48.291Z,99.99
2024-04-06T23:28:01.344Z,99.99
2024-04-06T23:30:13.425Z,99.99
2024-04-06T23:32:25.505Z,99.99
2024-04-06T23:34:37.603Z,99.99
2024-04-06T23:36:49.687Z,99.99
2024-04-06T23:39:01.772Z,99.99
2024-04-06T23:41:13.821Z,99.99
2024-04-06T23:43:25.898Z,99.99
2024-04-06T23:45:37.962Z,99.99
2024-04-06T23:47:50.077Z,99.99
2024-04-06T23:50:02.136Z,99.99
2024-04-06T23:51:02.122Z,99.99
2024-04-06T23:53:14.233Z,99.99
2024-04-06T23:55:26.290Z,99.99
2024-04-06T23:57:38.367Z,99.99
2024-04-06T23:59:50.448Z,99.99
